Troy, Idaho
Current Conditions -  °F | °C
As of 10:36 PM on Tuesday 25 Nov 2014 (Local Time) from KPUW Reporting Station
Light Rain Light Rain  
Wind Chill:   Ceiling: 500
Heat Index:   Visibility: 3mi
Dew Point:   Wind: 3mph
Humidity: 96%   Direction: 80°E
Pressure: 30.16"   Gusts: NA
Location:  46.74°N, 116.77°W
Report Text: KPUW 260636Z AUTO 08003KT 3SM -RA BR OVC005 04/03 A3016 RMK AO2 CIG 003V008 P0002 T00390033
Loading
Personal Weather Stations






























Interactive Weather Map New forecast layout! Learn more

10-Day Weather Forecast

Advertisements
Track Severe Weather on mobile